createdAt,value
2019-05-14T00:02:25.968Z,103576.61
2019-05-14T00:04:55.366Z,103581.92
2019-05-14T00:07:24.809Z,103577.48
2019-05-14T00:09:54.159Z,103579.64
2019-05-14T00:12:23.532Z,103588.11
2019-05-14T00:14:52.899Z,103583.25
2019-05-14T00:17:22.395Z,103589.55
2019-05-14T00:20:06.242Z,103588.23
2019-05-14T00:22:25.966Z,103590.00
2019-05-14T00:24:56.476Z,103589.52
2019-05-14T00:27:26.998Z,103589.11
2019-05-14T00:29:58.138Z,103592.20
2019-05-14T00:32:29.046Z,103582.19
2019-05-14T00:35:01.905Z,103583.03
2019-05-14T00:37:32.243Z,103577.78
2019-05-14T00:40:03.030Z,103570.66
2019-05-14T00:42:32.870Z,103570.66
2019-05-14T00:45:02.904Z,103575.19
2019-05-14T00:47:32.788Z,103574.21
2019-05-14T00:50:03.923Z,103576.89
2019-05-14T00:52:33.633Z,103582.21
2019-05-14T00:55:03.100Z,103582.63
2019-05-14T00:57:34.800Z,103578.22
2019-05-14T01:00:06.101Z,103576.93
2019-05-14T01:02:37.403Z,103579.33
2019-05-14T01:05:08.001Z,103588.61
2019-05-14T01:07:42.083Z,103579.39
2019-05-14T01:10:13.695Z,103582.02
2019-05-14T01:12:43.111Z,103580.32
2019-05-14T01:15:14.344Z,103573.28
2019-05-14T01:17:44.909Z,103579.45
2019-05-14T01:20:14.521Z,103583.89
2019-05-14T01:22:44.123Z,103582.12
2019-05-14T01:25:14.863Z,103582.15
2019-05-14T01:27:44.321Z,103576.40
2019-05-14T01:30:13.982Z,103577.30
2019-05-14T01:32:43.407Z,103577.31
2019-05-14T01:35:12.938Z,103577.73
2019-05-14T01:37:42.398Z,103574.17
2019-05-14T01:40:14.275Z,103570.20
2019-05-14T01:42:45.517Z,103566.25
2019-05-14T01:45:25.210Z,103571.50
2019-05-14T01:47:51.912Z,103567.59
2019-05-14T01:50:21.539Z,103572.08
2019-05-14T01:52:52.032Z,103574.75
2019-05-14T01:55:22.938Z,103578.30
2019-05-14T01:57:52.378Z,103578.27
2019-05-14T02:00:23.269Z,103581.39
2019-05-14T02:02:54.658Z,103584.95
2019-05-14T02:05:24.131Z,103581.40
2019-05-14T02:07:55.550Z,103588.48
2019-05-14T02:10:31.330Z,103590.69
2019-05-14T02:13:01.956Z,103588.52
2019-05-14T02:15:39.831Z,103587.61
2019-05-14T02:18:07.926Z,103588.95
2019-05-14T02:20:41.317Z,103592.06
2019-05-14T02:23:11.984Z,103594.30
2019-05-14T02:25:42.467Z,103586.36
2019-05-14T02:28:11.844Z,103589.94
2019-05-14T02:30:52.487Z,103585.02
2019-05-14T02:33:13.963Z,103581.48
2019-05-14T02:35:44.499Z,103581.95
2019-05-14T02:38:15.079Z,103580.63
2019-05-14T02:40:49.118Z,103580.63
2019-05-14T02:43:20.054Z,103584.62
2019-05-14T02:46:05.953Z,103583.71
2019-05-14T02:48:22.663Z,103585.04
2019-05-14T02:50:52.324Z,103588.61
2019-05-14T02:53:24.894Z,103578.89
2019-05-14T02:55:55.275Z,103586.42
2019-05-14T02:58:24.915Z,103585.53
2019-05-14T03:00:55.754Z,103579.82
2019-05-14T03:03:29.639Z,103582.91
2019-05-14T03:06:00.271Z,103581.17
2019-05-14T03:08:31.479Z,103575.86
2019-05-14T03:11:02.221Z,103565.24
2019-05-14T03:13:31.666Z,103562.58
2019-05-14T03:16:20.730Z,103569.66
2019-05-14T03:18:35.706Z,103569.66
2019-05-14T03:21:05.302Z,103574.08
2019-05-14T03:23:39.105Z,103567.89
2019-05-14T03:26:09.592Z,103568.78
2019-05-14T03:28:41.363Z,103565.69
2019-05-14T03:31:12.787Z,103566.14
2019-05-14T03:33:44.634Z,103568.33
2019-05-14T03:36:17.719Z,103555.06
2019-05-14T03:38:50.221Z,103554.61
2019-05-14T03:41:20.675Z,103553.27
2019-05-14T03:43:51.321Z,103555.03
2019-05-14T03:46:38.601Z,103557.27
2019-05-14T03:48:55.964Z,103561.69
2019-05-14T03:51:29.599Z,103565.69
2019-05-14T03:54:05.932Z,103563.92
2019-05-14T03:56:32.156Z,103571.91
2019-05-14T03:59:02.018Z,103568.80
2019-05-14T04:01:33.225Z,103567.88
2019-05-14T04:04:03.637Z,103566.57
2019-05-14T04:06:33.660Z,103569.26
2019-05-14T04:09:09.456Z,103567.47
2019-05-14T04:11:40.238Z,103575.44
2019-05-14T04:14:12.719Z,103573.64
2019-05-14T04:16:59.872Z,103573.20
2019-05-14T04:19:19.085Z,103574.52
2019-05-14T04:21:50.666Z,103578.92
2019-05-14T04:24:23.124Z,103576.69
2019-05-14T04:27:03.409Z,103581.95
2019-05-14T04:29:30.696Z,103585.51
2019-05-14T04:32:00.543Z,103584.12
2019-05-14T04:34:31.206Z,103581.95
2019-05-14T04:37:02.337Z,103586.41
2019-05-14T04:39:31.808Z,103589.02
2019-05-14T04:42:01.262Z,103585.90
2019-05-14T04:44:30.887Z,103583.61
2019-05-14T04:47:21.554Z,103582.72
2019-05-14T04:49:35.199Z,103578.74
2019-05-14T04:52:05.769Z,103580.50
2019-05-14T04:54:35.448Z,103571.91
2019-05-14T04:57:05.000Z,103571.91
2019-05-14T04:59:34.561Z,103577.17
2019-05-14T05:02:04.356Z,103576.65
2019-05-14T05:04:33.819Z,103578.80
2019-05-14T05:07:03.351Z,103583.64
2019-05-14T05:09:33.583Z,103588.87
2019-05-14T05:12:04.546Z,103583.89
2019-05-14T05:14:34.199Z,103587.38
2019-05-14T05:17:03.781Z,103582.42
2019-05-14T05:19:33.313Z,103580.95
2019-05-14T05:22:03.415Z,103581.95
2019-05-14T05:24:33.615Z,103577.83
2019-05-14T05:27:05.169Z,103576.82
2019-05-14T05:29:34.591Z,103566.09
2019-05-14T05:32:05.639Z,103577.77
2019-05-14T05:34:38.787Z,103577.12
2019-05-14T05:37:11.144Z,103584.61
2019-05-14T05:39:42.103Z,103576.06
2019-05-14T05:42:11.561Z,103575.86
2019-05-14T05:44:41.036Z,103577.06
2019-05-14T05:47:11.674Z,103573.04
2019-05-14T05:49:42.096Z,103568.92
2019-05-14T05:52:12.796Z,103573.62
2019-05-14T05:54:42.333Z,103567.34
2019-05-14T05:57:13.742Z,103577.62
2019-05-14T05:59:43.902Z,103576.17
2019-05-14T06:02:18.584Z,103573.44
2019-05-14T06:04:48.256Z,103569.86
2019-05-14T06:07:19.139Z,103579.08
2019-05-14T06:09:48.700Z,103580.79
2019-05-14T06:12:21.843Z,103581.65
2019-05-14T06:14:51.440Z,103576.73
2019-05-14T06:17:22.185Z,103577.59
2019-05-14T06:19:53.650Z,103578.29
2019-05-14T06:22:23.183Z,103575.23
2019-05-14T06:24:52.660Z,103570.15
2019-05-14T06:27:22.099Z,103567.25
2019-05-14T06:29:54.345Z,103570.67
2019-05-14T06:32:23.024Z,103569.68
2019-05-14T06:34:52.534Z,103570.70
2019-05-14T06:37:22.942Z,103559.48
2019-05-14T06:39:52.514Z,103565.13
2019-05-14T06:42:23.040Z,103561.02
2019-05-14T06:44:53.795Z,103560.46
2019-05-14T06:47:23.401Z,103556.81
2019-05-14T06:49:55.507Z,103552.87
2019-05-14T06:52:29.126Z,103556.86
2019-05-14T06:54:59.435Z,103551.06
2019-05-14T06:57:28.876Z,103555.42
2019-05-14T06:59:59.325Z,103551.16
2019-05-14T07:02:28.895Z,103556.19
2019-05-14T07:05:00.011Z,103555.59
2019-05-14T07:07:30.247Z,103544.64
2019-05-14T07:10:00.070Z,103554.05
2019-05-14T07:12:29.570Z,103552.94
2019-05-14T07:14:59.071Z,103553.27
2019-05-14T07:17:30.270Z,103551.98
2019-05-14T07:20:05.482Z,103557.08
2019-05-14T07:22:38.914Z,103547.84
2019-05-14T07:25:10.090Z,103544.42
2019-05-14T07:27:39.571Z,103538.06
2019-05-14T07:30:11.276Z,103541.09
2019-05-14T07:32:42.349Z,103544.58
2019-05-14T07:35:14.268Z,103537.79
2019-05-14T07:37:43.702Z,103533.09
2019-05-14T07:40:19.002Z,103534.64
2019-05-14T07:42:49.481Z,103533.67
2019-05-14T07:45:19.250Z,103528.88
2019-05-14T07:47:50.033Z,103526.06
2019-05-14T07:50:21.010Z,103522.71
2019-05-14T07:52:50.594Z,103525.95
2019-05-14T07:55:21.433Z,103529.02
2019-05-14T07:57:50.887Z,103528.80
2019-05-14T08:00:23.178Z,103522.06
2019-05-14T08:02:54.434Z,103525.19
2019-05-14T08:05:23.986Z,103523.02
2019-05-14T08:07:53.404Z,103514.33
2019-05-14T08:10:23.186Z,103513.98
2019-05-14T08:12:55.075Z,103519.56
2019-05-14T08:15:27.995Z,103518.45
2019-05-14T08:17:58.530Z,103510.12
2019-05-14T08:20:28.748Z,103516.31
2019-05-14T08:23:01.292Z,103507.14
2019-05-14T08:25:33.969Z,103504.03
2019-05-14T08:28:03.925Z,103497.05
2019-05-14T08:30:33.973Z,103501.22
2019-05-14T08:33:05.733Z,103504.34
2019-05-14T08:35:35.480Z,103498.33
2019-05-14T08:38:08.514Z,103489.23
2019-05-14T08:40:38.214Z,103487.07
2019-05-14T08:43:09.414Z,103475.08
2019-05-14T08:45:41.444Z,103479.28
2019-05-14T08:48:11.166Z,103470.97
2019-05-14T08:50:43.062Z,103477.28
2019-05-14T08:53:18.391Z,103473.96
2019-05-14T08:55:48.718Z,103470.59
2019-05-14T08:58:20.093Z,103467.34
2019-05-14T09:00:51.815Z,103488.08
2019-05-14T09:03:21.317Z,103492.30
2019-05-14T09:05:50.757Z,103478.41
2019-05-14T09:08:20.225Z,103478.41
2019-05-14T09:10:49.977Z,103482.98
2019-05-14T09:13:19.416Z,103480.97
2019-05-14T09:15:49.155Z,103484.06
2019-05-14T09:18:19.935Z,103481.73
2019-05-14T09:20:49.449Z,103478.10
2019-05-14T09:23:20.701Z,103467.03
2019-05-14T09:25:53.288Z,103463.37
2019-05-14T09:28:23.946Z,103456.22
2019-05-14T09:30:53.453Z,103446.87
2019-05-14T09:33:24.341Z,103448.52
2019-05-14T09:36:13.730Z,103452.41
2019-05-14T09:38:29.485Z,103450.37
2019-05-14T09:41:11.333Z,103443.06
2019-05-14T09:43:39.014Z,103449.53
2019-05-14T09:46:09.732Z,103447.23
2019-05-14T09:48:39.634Z,103443.95
2019-05-14T09:51:10.216Z,103459.23
2019-05-14T09:53:42.546Z,103456.43
2019-05-14T09:56:13.499Z,103460.52
2019-05-14T09:58:43.153Z,103456.63
2019-05-14T10:01:12.778Z,103447.67
2019-05-14T10:03:42.518Z,103448.30
2019-05-14T10:06:13.839Z,103445.41
2019-05-14T10:08:43.299Z,103439.37
2019-05-14T10:11:12.982Z,103440.34
2019-05-14T10:13:42.524Z,103437.48
2019-05-14T10:16:13.591Z,103433.37
2019-05-14T10:18:43.283Z,103422.31
2019-05-14T10:21:12.746Z,103419.03
2019-05-14T10:23:42.284Z,103411.63
2019-05-14T10:26:12.011Z,103410.73
2019-05-14T10:28:43.566Z,103403.67
2019-05-14T10:31:13.535Z,103410.45
2019-05-14T10:33:45.397Z,103408.09
2019-05-14T10:36:18.764Z,103414.69
2019-05-14T10:38:48.219Z,103405.75
2019-05-14T10:41:18.339Z,103403.62
2019-05-14T10:43:49.669Z,103400.45
2019-05-14T10:46:21.463Z,103398.02
2019-05-14T10:48:53.227Z,103402.91
2019-05-14T10:51:22.657Z,103397.92
2019-05-14T10:53:53.685Z,103393.57
2019-05-14T10:56:24.229Z,103388.20
2019-05-14T10:58:54.669Z,103394.01
2019-05-14T11:01:28.505Z,103394.80
2019-05-14T11:04:02.005Z,103399.47
2019-05-14T11:06:31.438Z,103398.33
2019-05-14T11:09:01.057Z,103397.75
2019-05-14T11:11:31.770Z,103404.48
2019-05-14T11:14:01.301Z,103398.66
2019-05-14T11:16:30.828Z,103400.84
2019-05-14T11:19:01.865Z,103392.72
2019-05-14T11:21:31.352Z,103380.91
2019-05-14T11:24:00.737Z,103385.87
2019-05-14T11:26:33.552Z,103379.69
2019-05-14T11:29:04.856Z,103373.38
2019-05-14T11:31:38.865Z,103374.09
2019-05-14T11:34:08.262Z,103380.70
2019-05-14T11:36:38.891Z,103365.05
2019-05-14T11:39:09.583Z,103367.45
2019-05-14T11:41:42.101Z,103369.38
2019-05-14T11:44:11.576Z,103357.77
2019-05-14T11:46:51.355Z,103364.47
2019-05-14T11:49:13.646Z,103352.63
2019-05-14T11:52:00.952Z,103353.75
2019-05-14T11:54:22.838Z,103348.19
2019-05-14T11:56:51.934Z,103348.28
2019-05-14T11:59:21.411Z,103346.30
2019-05-14T12:01:54.771Z,103345.36
2019-05-14T12:04:23.516Z,103341.87
2019-05-14T12:06:53.051Z,103337.69
2019-05-14T12:09:23.167Z,103335.19
2019-05-14T12:11:55.375Z,103330.52
2019-05-14T12:14:25.013Z,103325.33
2019-05-14T12:16:54.555Z,103321.75
2019-05-14T12:19:25.506Z,103316.44
2019-05-14T12:22:06.249Z,103315.47
2019-05-14T12:24:29.224Z,103309.23
2019-05-14T12:26:58.815Z,103302.02
2019-05-14T12:29:29.221Z,103300.58
2019-05-14T12:31:58.870Z,103298.61
2019-05-14T12:34:29.568Z,103298.07
2019-05-14T12:37:01.178Z,103294.36
2019-05-14T12:39:32.162Z,103289.84
2019-05-14T12:42:03.381Z,103298.33
2019-05-14T12:44:32.798Z,103276.11
2019-05-14T12:47:02.223Z,103283.23
2019-05-14T12:49:31.706Z,103294.38
2019-05-14T12:52:18.010Z,103279.17
2019-05-14T12:54:38.707Z,103281.53
2019-05-14T12:57:08.804Z,103271.63
2019-05-14T12:59:39.224Z,103269.48
2019-05-14T13:02:09.842Z,103261.02
2019-05-14T13:04:39.726Z,103263.55
2019-05-14T13:07:09.317Z,103256.39
2019-05-14T13:09:41.849Z,103262.83
2019-05-14T13:12:11.662Z,103262.33
2019-05-14T13:14:42.883Z,103264.94
2019-05-14T13:17:12.287Z,103255.83
2019-05-14T13:19:42.273Z,103278.98
2019-05-14T13:22:15.128Z,103253.20
2019-05-14T13:24:44.065Z,103258.59
2019-05-14T13:27:15.070Z,103244.95
2019-05-14T13:29:48.534Z,103247.54
2019-05-14T13:32:19.509Z,103242.07
2019-05-14T13:34:48.723Z,103245.16
2019-05-14T13:37:19.533Z,103236.80
2019-05-14T13:39:53.167Z,103249.27
2019-05-14T13:42:23.277Z,103237.50
2019-05-14T13:44:54.607Z,103243.05
2019-05-14T13:47:24.211Z,103241.03
2019-05-14T13:49:54.702Z,103232.66
2019-05-14T13:52:25.713Z,103226.05
2019-05-14T13:54:57.776Z,103229.34
2019-05-14T13:57:28.707Z,103227.95
2019-05-14T13:59:58.972Z,103219.43
2019-05-14T14:02:31.290Z,103219.09
2019-05-14T14:05:01.450Z,103212.01
2019-05-14T14:07:32.118Z,103201.10
2019-05-14T14:10:01.689Z,103202.72
2019-05-14T14:12:32.724Z,103202.55
2019-05-14T14:15:02.444Z,103197.48
2019-05-14T14:17:31.869Z,103197.25
2019-05-14T14:20:01.735Z,103196.67
2019-05-14T14:22:31.138Z,103200.89
2019-05-14T14:25:00.544Z,103199.67
2019-05-14T14:27:30.316Z,103192.23
2019-05-14T14:30:03.163Z,103188.17
2019-05-14T14:32:32.732Z,103200.30
2019-05-14T14:35:08.478Z,103184.30
2019-05-14T14:37:39.660Z,103200.48
2019-05-14T14:40:11.267Z,103198.97
2019-05-14T14:42:41.385Z,103187.39
2019-05-14T14:45:14.288Z,103186.45
2019-05-14T14:47:43.993Z,103188.44
2019-05-14T14:50:15.346Z,103185.22
2019-05-14T14:52:44.819Z,103182.98
2019-05-14T14:55:19.191Z,103183.45
2019-05-14T14:57:54.298Z,103179.23
2019-05-14T15:00:22.733Z,103183.61
2019-05-14T15:02:55.417Z,103187.67
2019-05-14T15:05:29.332Z,103180.48
2019-05-14T15:08:00.235Z,103179.44
2019-05-14T15:10:28.777Z,103175.87
2019-05-14T15:12:59.305Z,103176.84
2019-05-14T15:15:32.205Z,103174.73
2019-05-14T15:18:02.960Z,103169.19
2019-05-14T15:20:32.682Z,103176.25
2019-05-14T15:23:02.125Z,103174.48
2019-05-14T15:25:33.364Z,103169.51
2019-05-14T15:28:04.589Z,103169.69
2019-05-14T15:30:34.708Z,103171.58
2019-05-14T15:33:09.280Z,103176.28
2019-05-14T15:35:39.122Z,103176.25
2019-05-14T15:38:11.443Z,103180.20
2019-05-14T15:40:40.800Z,103167.28
2019-05-14T15:43:10.537Z,103177.08
2019-05-14T15:45:41.400Z,103162.37
2019-05-14T15:48:11.944Z,103172.52
2019-05-14T15:50:42.607Z,103169.09
2019-05-14T15:53:14.482Z,103166.20
2019-05-14T15:55:45.948Z,103172.11
2019-05-14T15:58:21.474Z,103164.59
2019-05-14T16:00:48.743Z,103164.59
2019-05-14T16:03:20.702Z,103170.17
2019-05-14T16:05:50.535Z,103164.75
2019-05-14T16:08:22.697Z,103165.26
2019-05-14T16:10:52.701Z,103159.45
2019-05-14T16:13:22.536Z,103159.86
2019-05-14T16:15:55.332Z,103153.73
2019-05-14T16:18:28.972Z,103153.65
2019-05-14T16:20:59.938Z,103155.48
2019-05-14T16:23:32.971Z,103147.64
2019-05-14T16:26:02.532Z,103148.19
2019-05-14T16:28:32.138Z,103148.77
2019-05-14T16:31:03.516Z,103149.84
2019-05-14T16:33:33.191Z,103143.58
2019-05-14T16:36:08.652Z,103142.30
2019-05-14T16:38:39.428Z,103139.20
2019-05-14T16:41:09.617Z,103132.66
2019-05-14T16:43:40.123Z,103134.36
2019-05-14T16:46:09.929Z,103134.89
2019-05-14T16:48:42.978Z,103143.39
2019-05-14T16:51:12.812Z,103139.09
2019-05-14T16:53:42.441Z,103133.10
2019-05-14T16:56:12.981Z,103135.86
2019-05-14T16:58:42.534Z,103140.92
2019-05-14T17:01:12.044Z,103134.74
2019-05-14T17:03:43.287Z,103136.94
2019-05-14T17:06:14.759Z,103134.80
2019-05-14T17:08:45.361Z,103130.28
2019-05-14T17:11:14.978Z,103135.75
2019-05-14T17:13:44.719Z,103128.88
2019-05-14T17:16:14.417Z,103135.19
2019-05-14T17:18:48.427Z,103122.70
2019-05-14T17:21:18.257Z,103126.51
2019-05-14T17:23:48.926Z,103125.37
2019-05-14T17:26:20.115Z,103127.14
2019-05-14T17:28:52.489Z,103134.84
2019-05-14T17:31:21.897Z,103130.16
2019-05-14T17:33:51.351Z,103130.43
2019-05-14T17:36:21.226Z,103126.18
2019-05-14T17:38:50.654Z,103136.69
2019-05-14T17:41:20.094Z,103132.97
2019-05-14T17:43:49.868Z,103135.66
2019-05-14T17:46:22.963Z,103135.66
2019-05-14T17:48:52.412Z,103141.11
2019-05-14T17:51:21.934Z,103144.51
2019-05-14T17:53:51.610Z,103137.05
2019-05-14T17:56:23.044Z,103139.77
2019-05-14T17:58:52.483Z,103140.43
2019-05-14T18:01:23.714Z,103133.92
2019-05-14T18:03:53.262Z,103129.62
2019-05-14T18:06:22.832Z,103127.73
2019-05-14T18:08:52.271Z,103135.15
2019-05-14T18:11:22.470Z,103127.31
2019-05-14T18:13:51.974Z,103124.77
2019-05-14T18:16:21.372Z,103125.98
2019-05-14T18:18:50.842Z,103123.86
2019-05-14T18:21:20.434Z,103123.22
2019-05-14T18:23:49.860Z,103119.92
2019-05-14T18:26:19.394Z,103117.14
2019-05-14T18:28:49.005Z,103118.58
2019-05-14T18:31:20.097Z,103111.73
2019-05-14T18:33:49.644Z,103117.09
2019-05-14T18:36:19.350Z,103112.08
2019-05-14T18:38:50.507Z,103118.47
2019-05-14T18:41:20.005Z,103110.96
2019-05-14T18:43:49.512Z,103115.72
2019-05-14T18:46:20.716Z,103104.17
2019-05-14T18:48:50.300Z,103109.16
2019-05-14T18:51:19.966Z,103106.44
2019-05-14T18:53:49.380Z,103109.83
2019-05-14T18:56:24.059Z,103103.64
2019-05-14T18:58:52.651Z,103099.16
2019-05-14T19:01:22.050Z,103105.41
2019-05-14T19:03:51.465Z,103106.14
2019-05-14T19:06:20.996Z,103103.83
2019-05-14T19:08:50.401Z,103106.97
2019-05-14T19:11:19.786Z,103106.83
2019-05-14T19:13:49.489Z,103107.54
2019-05-14T19:16:18.841Z,103109.39
2019-05-14T19:18:48.922Z,103108.99
2019-05-14T19:21:19.304Z,103121.23
2019-05-14T19:23:49.240Z,103114.48
2019-05-14T19:26:33.047Z,103116.13
2019-05-14T19:28:50.244Z,103115.44
2019-05-14T19:31:19.678Z,103114.10
2019-05-14T19:33:54.899Z,103120.20
2019-05-14T19:36:24.888Z,103115.23
2019-05-14T19:38:54.362Z,103119.27
2019-05-14T19:41:23.801Z,103102.69
2019-05-14T19:43:55.382Z,103118.39
2019-05-14T19:46:24.810Z,103113.17
2019-05-14T19:48:54.280Z,103117.98
2019-05-14T19:51:23.990Z,103111.23
2019-05-14T19:53:53.447Z,103109.83
2019-05-14T19:56:22.958Z,103109.23
2019-05-14T19:58:52.425Z,103113.30
2019-05-14T20:01:22.193Z,103106.17
2019-05-14T20:03:51.753Z,103117.38
2019-05-14T20:06:21.485Z,103123.01
2019-05-14T20:08:51.102Z,103114.26
2019-05-14T20:11:21.046Z,103118.50
2019-05-14T20:13:50.583Z,103113.53
2019-05-14T20:16:20.066Z,103116.27
2019-05-14T20:18:49.436Z,103115.81
2019-05-14T20:21:18.980Z,103115.87
2019-05-14T20:23:48.514Z,103110.69
2019-05-14T20:26:17.936Z,103110.28
2019-05-14T20:28:48.360Z,103107.33
2019-05-14T20:31:18.271Z,103103.16
2019-05-14T20:33:48.519Z,103101.81
2019-05-14T20:36:18.801Z,103099.31
2019-05-14T20:38:48.388Z,103099.75
2019-05-14T20:41:18.145Z,103108.26
2019-05-14T20:43:48.108Z,103101.84
2019-05-14T20:46:18.533Z,103100.50
2019-05-14T20:48:48.378Z,103101.66
2019-05-14T20:51:18.575Z,103103.51
2019-05-14T20:53:48.852Z,103106.64
2019-05-14T20:56:19.084Z,103107.27
2019-05-14T20:58:48.589Z,103101.52
2019-05-14T21:01:19.105Z,103098.81
2019-05-14T21:03:49.196Z,103099.20
2019-05-14T21:06:19.694Z,103094.02
2019-05-14T21:08:49.410Z,103103.98
2019-05-14T21:11:19.274Z,103098.59
2019-05-14T21:13:50.353Z,103101.52
2019-05-14T21:16:19.942Z,103104.42
2019-05-14T21:18:49.416Z,103108.83
2019-05-14T21:21:18.949Z,103107.93
2019-05-14T21:23:50.022Z,103102.64
2019-05-14T21:26:19.766Z,103107.53
2019-05-14T21:28:50.853Z,103105.98
2019-05-14T21:31:20.306Z,103102.70
2019-05-14T21:33:49.816Z,103101.67
2019-05-14T21:36:19.605Z,103099.02
2019-05-14T21:38:49.248Z,103095.67
2019-05-14T21:41:20.561Z,103095.19
2019-05-14T21:43:50.216Z,103096.03
2019-05-14T21:46:19.665Z,103095.64
2019-05-14T21:48:49.268Z,103096.73
2019-05-14T21:51:18.686Z,103097.66
2019-05-14T21:53:48.417Z,103099.68
2019-05-14T21:56:21.512Z,103098.39
2019-05-14T21:58:49.152Z,103096.50
2019-05-14T22:01:19.413Z,103092.02
2019-05-14T22:03:48.973Z,103088.41
2019-05-14T22:06:18.948Z,103083.87
2019-05-14T22:08:48.886Z,103078.10
2019-05-14T22:11:18.939Z,103086.63
2019-05-14T22:13:49.667Z,103088.45
2019-05-14T22:16:19.229Z,103087.19
2019-05-14T22:18:48.864Z,103081.22
2019-05-14T22:21:18.544Z,103081.54
2019-05-14T22:23:48.376Z,103081.50
2019-05-14T22:26:18.646Z,103082.91
2019-05-14T22:28:48.285Z,103081.58
2019-05-14T22:31:19.244Z,103079.77
2019-05-14T22:33:48.900Z,103076.38
2019-05-14T22:36:21.462Z,103082.52
2019-05-14T22:38:49.462Z,103073.70
2019-05-14T22:41:19.123Z,103074.68
2019-05-14T22:43:51.355Z,103076.82
2019-05-14T22:46:20.624Z,103075.45
2019-05-14T22:48:51.651Z,103079.56
2019-05-14T22:51:23.073Z,103077.38
2019-05-14T22:53:53.445Z,103074.23
2019-05-14T22:56:23.149Z,103072.09
2019-05-14T22:58:52.597Z,103074.52
2019-05-14T23:01:22.033Z,103064.23
2019-05-14T23:03:51.758Z,103062.05
2019-05-14T23:06:21.150Z,103064.79
2019-05-14T23:08:52.193Z,103059.86
2019-05-14T23:11:24.691Z,103062.94
2019-05-14T23:13:54.117Z,103063.41
2019-05-14T23:16:34.295Z,103062.41
2019-05-14T23:18:54.702Z,103056.63
2019-05-14T23:21:24.092Z,103059.30
2019-05-14T23:23:53.510Z,103058.73
2019-05-14T23:26:23.053Z,103057.96
2019-05-14T23:28:52.441Z,103050.25
2019-05-14T23:31:24.640Z,103057.52
2019-05-14T23:33:54.254Z,103053.53
2019-05-14T23:36:23.866Z,103058.58
2019-05-14T23:38:54.344Z,103055.87
2019-05-14T23:41:23.837Z,103054.70
2019-05-14T23:43:56.047Z,103056.06
2019-05-14T23:46:25.454Z,103056.11
2019-05-14T23:48:54.949Z,103054.56
2019-05-14T23:51:24.515Z,103049.59
2019-05-14T23:53:53.981Z,103051.78
2019-05-14T23:56:23.658Z,103048.02
2019-05-14T23:58:58.474Z,103046.35
